createdAt,value
2019-04-05T00:02:13.189Z,4.77
2019-04-05T00:04:44.539Z,4.73
2019-04-05T00:07:15.838Z,4.73
2019-04-05T00:09:47.283Z,4.73
2019-04-05T00:12:18.589Z,4.71
2019-04-05T00:14:49.909Z,4.72
2019-04-05T00:17:21.203Z,4.76
2019-04-05T00:19:52.425Z,4.76
2019-04-05T00:22:23.741Z,4.75
2019-04-05T00:24:55.073Z,4.78
2019-04-05T00:27:26.393Z,4.76
2019-04-05T00:29:57.929Z,4.89
2019-04-05T00:32:29.085Z,4.84
2019-04-05T00:35:00.290Z,4.83
2019-04-05T00:37:31.537Z,4.81
2019-04-05T00:40:02.859Z,4.87
2019-04-05T00:42:34.136Z,4.81
2019-04-05T00:45:05.854Z,4.77
2019-04-05T00:47:37.335Z,4.76
2019-04-05T00:50:09.751Z,4.74
2019-04-05T00:52:40.956Z,4.73
2019-04-05T00:55:12.530Z,4.73
2019-04-05T00:57:43.908Z,4.72
2019-04-05T01:00:16.051Z,4.71
2019-04-05T01:02:47.345Z,4.73
2019-04-05T01:05:18.747Z,4.72
2019-04-05T01:07:50.331Z,4.70
2019-04-05T01:10:22.175Z,4.67
2019-04-05T01:12:53.967Z,4.66
2019-04-05T01:15:25.382Z,4.66
2019-04-05T01:17:56.740Z,4.87
2019-04-05T01:20:33.377Z,4.84
2019-04-05T01:23:04.964Z,4.80
2019-04-05T01:25:38.347Z,4.78
2019-04-05T01:28:09.846Z,4.77
2019-04-05T01:30:41.193Z,4.75
2019-04-05T01:33:12.499Z,4.77
2019-04-05T01:35:43.761Z,4.81
2019-04-05T01:38:15.195Z,4.88
2019-04-05T01:40:48.251Z,4.94
2019-04-05T01:43:19.894Z,4.92
2019-04-05T01:45:53.849Z,5.00
2019-04-05T01:48:24.610Z,4.94
2019-04-05T01:50:55.828Z,5.23
2019-04-05T01:53:28.051Z,5.11
2019-04-05T01:55:59.388Z,5.07
2019-04-05T01:58:30.661Z,5.15
2019-04-05T02:01:02.138Z,5.09
2019-04-05T02:03:33.600Z,5.15
2019-04-05T02:06:05.068Z,5.35
2019-04-05T02:08:36.975Z,5.53
2019-04-05T02:11:08.390Z,5.47
2019-04-05T02:13:42.618Z,5.52
2019-04-05T02:16:14.037Z,5.31
2019-04-05T02:18:45.325Z,5.28
2019-04-05T02:21:16.704Z,5.31
2019-04-05T02:23:47.943Z,5.37
2019-04-05T02:26:19.223Z,5.23
2019-04-05T02:28:50.552Z,5.17
2019-04-05T02:31:21.844Z,5.16
2019-04-05T02:33:53.299Z,5.09
2019-04-05T02:36:24.687Z,5.10
2019-04-05T02:38:55.996Z,5.07
2019-04-05T02:41:30.757Z,5.08
2019-04-05T02:44:04.185Z,5.08
2019-04-05T02:46:36.309Z,5.14
2019-04-05T02:49:08.336Z,5.11
2019-04-05T02:51:42.177Z,5.19
2019-04-05T02:54:14.127Z,5.17
2019-04-05T02:56:46.025Z,5.10
2019-04-05T02:59:18.904Z,5.07
2019-04-05T03:01:51.063Z,5.13
2019-04-05T03:04:22.393Z,5.05
2019-04-05T03:06:54.667Z,5.10
2019-04-05T03:09:26.607Z,5.15
2019-04-05T03:11:59.504Z,5.29
2019-04-05T03:14:32.573Z,5.38
2019-04-05T03:17:04.583Z,5.39
2019-04-05T03:19:39.210Z,5.39
2019-04-05T03:22:14.627Z,5.43
2019-04-05T03:24:48.626Z,5.26
2019-04-05T03:27:29.521Z,5.20
2019-04-05T03:30:02.582Z,5.12
2019-04-05T03:32:34.035Z,5.03
2019-04-05T03:35:05.722Z,5.11
2019-04-05T03:37:37.042Z,5.10
2019-04-05T03:40:08.867Z,5.02
2019-04-05T03:42:40.347Z,5.03
2019-04-05T03:45:12.061Z,5.02
2019-04-05T03:47:43.396Z,5.14
2019-04-05T03:50:14.893Z,5.25
2019-04-05T03:52:46.826Z,5.33
2019-04-05T03:55:18.439Z,5.46
2019-04-05T03:57:49.846Z,5.40
2019-04-05T04:00:21.139Z,5.39
2019-04-05T04:02:53.216Z,5.42
2019-04-05T04:05:24.600Z,5.53
2019-04-05T04:07:56.365Z,5.55
2019-04-05T04:10:29.943Z,5.36
2019-04-05T04:13:01.362Z,5.36
2019-04-05T04:15:33.780Z,5.35
2019-04-05T04:18:07.269Z,5.31
2019-04-05T04:20:47.401Z,5.21
2019-04-05T04:23:19.357Z,5.17
2019-04-05T04:25:52.700Z,5.23
2019-04-05T04:28:24.134Z,5.15
2019-04-05T04:30:55.904Z,5.32
2019-04-05T04:33:34.021Z,5.33
2019-04-05T04:36:05.879Z,5.33
2019-04-05T04:38:37.245Z,5.42
2019-04-05T04:41:09.053Z,5.40
2019-04-05T04:43:40.393Z,5.33
2019-04-05T04:46:11.758Z,5.38
2019-04-05T04:48:45.015Z,5.41
2019-04-05T04:51:16.828Z,5.38
2019-04-05T04:53:49.005Z,5.30
2019-04-05T04:56:20.431Z,5.53
2019-04-05T04:58:51.978Z,5.53
2019-04-05T05:01:23.720Z,5.46
2019-04-05T05:03:57.712Z,5.35
2019-04-05T05:06:29.469Z,5.44
2019-04-05T05:09:01.458Z,5.51
2019-04-05T05:11:32.631Z,5.46
2019-04-05T05:14:04.515Z,5.36
2019-04-05T05:16:35.998Z,5.31
2019-04-05T05:19:07.591Z,5.31
2019-04-05T05:21:39.487Z,5.48
2019-04-05T05:24:10.726Z,5.64
2019-04-05T05:26:42.379Z,5.69
2019-04-05T05:29:13.883Z,5.83
2019-04-05T05:31:45.126Z,5.97
2019-04-05T05:34:16.588Z,6.08
2019-04-05T05:36:48.137Z,6.03
2019-04-05T05:39:19.856Z,6.05
2019-04-05T05:41:53.976Z,5.91
2019-04-05T05:44:25.412Z,5.91
2019-04-05T05:46:56.686Z,6.04
2019-04-05T05:49:27.970Z,6.05
2019-04-05T05:51:59.507Z,5.93
2019-04-05T05:54:30.769Z,6.07
2019-04-05T05:57:01.995Z,5.95
2019-04-05T05:59:33.295Z,5.87
2019-04-05T06:02:07.155Z,5.88
2019-04-05T06:04:37.488Z,5.98
2019-04-05T06:07:09.386Z,5.95
2019-04-05T06:09:40.629Z,5.95
2019-04-05T06:12:11.877Z,5.93
2019-04-05T06:14:43.167Z,5.99
2019-04-05T06:17:14.350Z,5.93
2019-04-05T06:19:45.517Z,6.00
2019-04-05T06:22:16.695Z,5.99
2019-04-05T06:24:47.883Z,6.06
2019-04-05T06:27:22.185Z,6.09
2019-04-05T06:29:53.378Z,6.18
2019-04-05T06:32:24.647Z,6.45
2019-04-05T06:34:55.944Z,6.53
2019-04-05T06:39:56.795Z,6.85
2019-04-05T06:42:27.955Z,6.99
2019-04-05T06:44:59.202Z,7.02
2019-04-05T06:47:30.462Z,7.15
2019-04-05T06:50:01.727Z,7.16
2019-04-05T06:52:32.972Z,7.28
2019-04-05T06:55:04.349Z,7.25
2019-04-05T06:57:35.600Z,7.35
2019-04-05T07:00:07.486Z,7.57
2019-04-05T07:02:38.721Z,7.72
2019-04-05T07:05:10.104Z,7.77
2019-04-05T07:07:41.408Z,7.93
2019-04-05T07:10:12.890Z,7.84
2019-04-05T07:12:44.184Z,7.69
2019-04-05T07:15:15.656Z,7.63
2019-04-05T07:17:46.868Z,7.76
2019-04-05T07:20:18.189Z,7.67
2019-04-05T07:22:49.442Z,7.78
2019-04-05T07:25:20.659Z,7.74
2019-04-05T07:27:51.893Z,7.68
2019-04-05T07:30:23.376Z,7.62
2019-04-05T07:32:54.669Z,7.64
2019-04-05T07:35:33.512Z,7.61
2019-04-05T07:38:01.424Z,7.46
2019-04-05T07:40:32.754Z,7.70
2019-04-05T07:43:04.020Z,7.69
2019-04-05T07:45:35.183Z,7.96
2019-04-05T07:48:06.541Z,7.92
2019-04-05T07:50:37.828Z,7.96
2019-04-05T07:53:23.390Z,8.32
2019-04-05T07:55:55.218Z,8.47
2019-04-05T07:58:26.648Z,8.63
2019-04-05T08:00:58.775Z,8.90
2019-04-05T08:03:30.065Z,9.16
2019-04-05T08:06:01.300Z,9.24
2019-04-05T08:08:50.199Z,9.19
2019-04-05T08:17:06.125Z,9.44
2019-04-05T08:19:37.397Z,9.61
2019-04-05T08:22:08.642Z,9.69
2019-04-05T08:24:39.870Z,9.48
2019-04-05T08:27:11.154Z,9.46
2019-04-05T08:29:42.391Z,9.44
2019-04-05T08:32:15.001Z,9.39
2019-04-05T08:34:46.406Z,9.40
2019-04-05T08:37:17.585Z,9.67
2019-04-05T08:39:48.838Z,9.83
2019-04-05T08:42:20.045Z,9.39
2019-04-05T08:44:51.192Z,9.61
2019-04-05T08:47:22.796Z,9.86
2019-04-05T08:49:54.276Z,9.68
2019-04-05T08:52:27.040Z,9.61
2019-04-05T08:54:58.471Z,9.47
2019-04-05T08:57:29.914Z,9.49
2019-04-05T09:00:01.112Z,9.26
2019-04-05T09:02:32.487Z,9.02
2019-04-05T09:05:03.857Z,9.21
2019-04-05T09:07:35.218Z,9.22
2019-04-05T09:10:07.247Z,9.21
2019-04-05T09:12:38.525Z,9.30
2019-04-05T09:15:10.277Z,9.46
2019-04-05T09:17:41.532Z,9.51
2019-04-05T09:20:13.065Z,9.64
2019-04-05T09:22:44.344Z,9.83
2019-04-05T09:25:15.584Z,9.93
2019-04-05T09:27:46.781Z,10.09
2019-04-05T09:30:19.050Z,9.97
2019-04-05T09:32:50.261Z,9.87
2019-04-05T09:35:21.631Z,10.09
2019-04-05T09:37:52.873Z,9.98
2019-04-05T09:40:24.249Z,9.96
2019-04-05T09:42:55.473Z,10.12
2019-04-05T09:45:26.807Z,10.13
2019-04-05T09:48:01.170Z,10.16
2019-04-05T09:50:32.488Z,10.11
2019-04-05T09:53:03.827Z,10.19
2019-04-05T09:55:37.672Z,10.19
2019-04-05T09:58:10.181Z,10.46
2019-04-05T10:00:41.709Z,10.77
2019-04-05T10:03:12.952Z,10.89
2019-04-05T10:05:44.374Z,10.60
2019-04-05T10:08:15.730Z,10.82
2019-04-05T10:10:47.057Z,10.91
2019-04-05T10:13:18.292Z,11.03
2019-04-05T10:15:49.568Z,10.76
2019-04-05T10:18:20.884Z,10.52
2019-04-05T10:20:52.118Z,10.61
2019-04-05T10:23:23.414Z,10.87
2019-04-05T10:25:54.708Z,10.50
2019-04-05T10:28:25.962Z,10.65
2019-04-05T10:30:57.172Z,10.57
2019-04-05T10:33:28.491Z,10.49
2019-04-05T10:35:59.832Z,10.53
2019-04-05T10:38:31.070Z,10.77
2019-04-05T10:41:02.327Z,10.48
2019-04-05T10:43:33.605Z,10.47
2019-04-05T10:46:05.819Z,10.94
2019-04-05T10:48:37.224Z,11.19
2019-04-05T10:51:08.532Z,11.30
2019-04-05T10:53:39.872Z,11.10
2019-04-05T10:56:11.136Z,11.33
2019-04-05T10:58:42.505Z,11.02
2019-04-05T11:01:14.791Z,11.27
2019-04-05T11:03:46.043Z,10.96
2019-04-05T11:06:17.355Z,11.11
2019-04-05T11:08:48.677Z,11.14
2019-04-05T11:16:57.512Z,11.33
2019-04-05T11:19:18.163Z,10.59
2019-04-05T11:21:52.179Z,10.96
2019-04-05T11:24:22.646Z,11.40
2019-04-05T11:26:53.893Z,11.18
2019-04-05T11:29:25.158Z,11.70
2019-04-05T11:31:57.691Z,11.76
2019-04-05T11:34:29.129Z,11.65
2019-04-05T11:37:02.819Z,11.78
2019-04-05T11:39:35.165Z,11.89
2019-04-05T11:42:06.768Z,12.20
2019-04-05T11:44:41.436Z,12.26
2019-04-05T11:47:12.958Z,11.55
2019-04-05T11:49:47.969Z,11.76
2019-04-05T11:52:19.380Z,11.57
2019-04-05T11:54:50.998Z,11.06
2019-04-05T11:57:22.343Z,10.65
2019-04-05T11:59:53.736Z,10.85
2019-04-05T12:02:32.823Z,10.91
2019-04-05T12:05:12.690Z,11.24
2019-04-05T12:08:05.180Z,11.37
2019-04-05T12:10:46.001Z,11.44
2019-04-05T12:13:38.915Z,11.45
2019-04-05T12:16:27.555Z,11.25
2019-04-05T12:18:59.558Z,11.31
2019-04-05T12:21:34.804Z,10.80
2019-04-05T12:24:11.347Z,10.69
2019-04-05T12:26:46.181Z,10.69
2019-04-05T12:29:28.800Z,11.17
2019-04-05T12:32:08.494Z,11.17
2019-04-05T12:34:52.719Z,11.25
2019-04-05T12:37:27.210Z,11.18
2019-04-05T12:40:14.871Z,11.21
2019-04-05T12:43:00.338Z,11.53
2019-04-05T12:45:44.309Z,11.76
2019-04-05T12:48:16.000Z,11.95
2019-04-05T12:51:01.688Z,11.95
2019-04-05T12:53:38.177Z,12.07
2019-04-05T12:56:10.906Z,12.08
2019-04-05T12:58:43.607Z,11.60
2019-04-05T13:01:24.006Z,11.55
2019-04-05T13:03:58.390Z,11.67
2019-04-05T13:06:28.259Z,12.00
2019-04-05T13:08:59.488Z,12.13
2019-04-05T13:11:30.759Z,12.25
2019-04-05T13:14:02.063Z,11.16
2019-04-05T13:16:33.321Z,11.31
2019-04-05T13:19:04.579Z,11.49
2019-04-05T13:21:36.227Z,11.45
2019-04-05T13:24:10.002Z,11.51
2019-04-05T13:26:42.045Z,10.91
2019-04-05T13:29:13.391Z,11.21
2019-04-05T13:31:51.635Z,11.28
2019-04-05T13:34:25.642Z,11.50
2019-04-05T13:36:55.890Z,11.35
2019-04-05T13:39:27.540Z,11.13
2019-04-05T13:42:01.800Z,11.11
2019-04-05T13:44:33.052Z,11.24
2019-04-05T13:47:10.864Z,11.37
2019-04-05T13:49:42.238Z,11.64
2019-04-05T13:52:13.502Z,11.71
2019-04-05T13:54:44.847Z,11.51
2019-04-05T13:57:16.170Z,11.54
2019-04-05T13:59:47.559Z,11.21
2019-04-05T14:02:21.142Z,10.85
2019-04-05T14:04:53.877Z,10.54
2019-04-05T14:07:25.342Z,10.36
2019-04-05T14:12:40.193Z,10.58
2019-04-05T14:15:12.317Z,10.77
2019-04-05T14:17:44.746Z,10.88
2019-04-05T14:20:19.573Z,10.52
2019-04-05T14:22:52.333Z,10.18
2019-04-05T14:25:26.040Z,10.09
2019-04-05T14:27:56.695Z,10.05
2019-04-05T14:30:27.974Z,10.18
2019-04-05T14:32:59.274Z,9.78
2019-04-05T14:35:30.570Z,9.87
2019-04-05T14:38:01.708Z,9.75
2019-04-05T14:40:33.227Z,9.72
2019-04-05T14:43:04.544Z,9.63
2019-04-05T14:45:35.941Z,9.59
2019-04-05T14:48:07.328Z,9.56
2019-04-05T14:50:38.701Z,9.58
2019-04-05T14:53:09.866Z,9.62
2019-04-05T14:55:41.182Z,9.44
2019-04-05T14:58:12.385Z,9.48
2019-04-05T15:00:44.403Z,9.22
2019-04-05T15:03:16.630Z,9.39
2019-04-05T15:05:48.026Z,9.48
2019-04-05T15:08:20.716Z,9.57
2019-04-05T15:10:56.472Z,9.52
2019-04-05T15:13:25.278Z,9.51
2019-04-05T15:15:56.889Z,9.54
2019-04-05T15:18:28.384Z,9.33
2019-04-05T15:20:59.615Z,9.20
2019-04-05T15:23:30.794Z,9.29
2019-04-05T15:26:02.035Z,9.31
2019-04-05T15:28:33.386Z,9.28
2019-04-05T15:31:04.769Z,9.03
2019-04-05T15:33:36.086Z,9.14
2019-04-05T15:36:07.407Z,9.09
2019-04-05T15:38:38.654Z,8.87
2019-04-05T15:44:01.517Z,8.96
2019-04-05T15:46:32.785Z,9.03
2019-04-05T15:49:03.999Z,9.02
2019-04-05T15:51:35.273Z,9.18
2019-04-05T15:54:06.571Z,9.30
2019-04-05T15:56:37.796Z,9.37
2019-04-05T15:59:09.130Z,9.23
2019-04-05T16:01:41.180Z,8.95
2019-04-05T16:04:12.543Z,8.96
2019-04-05T16:06:43.770Z,8.93
2019-04-05T16:09:17.419Z,8.71
2019-04-05T16:11:49.748Z,8.82
2019-04-05T16:14:21.111Z,8.83
2019-04-05T16:16:53.724Z,8.84
2019-04-05T16:19:25.135Z,8.79
2019-04-05T16:21:56.384Z,8.69
2019-04-05T16:24:27.679Z,8.72
2019-04-05T16:26:58.983Z,8.60
2019-04-05T16:29:30.323Z,8.58
2019-04-05T16:32:01.627Z,8.49
2019-04-05T16:34:32.951Z,8.55
2019-04-05T16:37:04.518Z,8.47
2019-04-05T16:39:35.713Z,8.45
2019-04-05T16:42:09.988Z,8.41
2019-04-05T16:44:39.983Z,8.41
2019-04-05T16:47:11.149Z,8.39
2019-04-05T16:49:42.345Z,8.48
2019-04-05T16:52:13.590Z,8.40
2019-04-05T16:54:44.896Z,8.36
2019-04-05T16:57:16.128Z,8.35
2019-04-05T16:59:47.386Z,8.39
2019-04-05T17:02:18.627Z,8.34
2019-04-05T17:04:49.914Z,8.23
2019-04-05T17:07:21.147Z,8.17
2019-04-05T17:09:52.428Z,8.07
2019-04-05T17:12:23.633Z,8.14
2019-04-05T17:14:54.801Z,8.20
2019-04-05T17:17:26.034Z,8.13
2019-04-05T17:19:57.898Z,8.27
2019-04-05T17:22:33.508Z,8.15
2019-04-05T17:25:05.279Z,8.29
2019-04-05T17:27:36.502Z,8.35
2019-04-05T17:30:08.415Z,8.37
2019-04-05T17:32:39.578Z,8.46
2019-04-05T17:35:11.485Z,8.33
2019-04-05T17:37:42.733Z,8.34
2019-04-05T17:40:14.508Z,8.32
2019-04-05T17:42:45.757Z,8.18
2019-04-05T17:45:17.263Z,8.18
2019-04-05T17:47:48.477Z,8.24
2019-04-05T17:50:34.113Z,8.18
2019-04-05T17:53:12.583Z,8.22
2019-04-05T17:55:47.450Z,8.04
2019-04-05T17:58:19.883Z,8.06
2019-04-05T18:00:51.145Z,8.08
2019-04-05T18:03:22.413Z,8.13
2019-04-05T18:05:53.756Z,8.11
2019-04-05T18:08:24.943Z,8.08
2019-04-05T18:10:56.503Z,8.16
2019-04-05T18:13:27.795Z,8.19
2019-04-05T18:15:59.058Z,8.11
2019-04-05T18:18:30.359Z,8.11
2019-04-05T18:21:01.651Z,8.20
2019-04-05T18:23:32.948Z,8.12
2019-04-05T18:26:04.194Z,8.02
2019-04-05T18:28:35.565Z,8.01
2019-04-05T18:31:06.847Z,7.93
2019-04-05T18:33:38.081Z,7.89
2019-04-05T18:36:09.554Z,7.85
2019-04-05T18:38:40.783Z,7.90
2019-04-05T18:49:18.229Z,7.87
2019-04-05T18:51:49.490Z,7.89
2019-04-05T18:54:20.708Z,7.95
2019-04-05T18:56:51.960Z,7.84
2019-04-05T18:59:23.205Z,7.74
2019-04-05T19:01:54.489Z,7.79
2019-04-05T19:04:25.726Z,7.80
2019-04-05T19:06:56.976Z,7.83
2019-04-05T19:09:28.219Z,7.81
2019-04-05T19:11:59.429Z,7.80
2019-04-05T19:14:30.699Z,7.81
2019-04-05T19:17:03.167Z,7.80
2019-04-05T19:19:34.441Z,7.86
2019-04-05T19:22:05.798Z,7.80
2019-04-05T19:24:37.173Z,7.77
2019-04-05T19:27:08.502Z,7.72
2019-04-05T19:29:39.770Z,7.78
2019-04-05T19:50:04.333Z,7.71
2019-04-05T19:52:35.669Z,7.75
2019-04-05T19:55:08.045Z,7.75
2019-04-05T19:57:39.167Z,7.78
2019-04-05T20:00:11.206Z,7.79
2019-04-05T20:02:50.140Z,7.77
2019-04-05T20:05:21.659Z,7.74
2019-04-05T20:07:53.093Z,7.73
2019-04-05T20:13:06.401Z,7.85
2019-04-05T20:15:37.653Z,7.83
2019-04-05T20:18:09.009Z,7.90
2019-04-05T20:20:40.262Z,7.84
2019-04-05T20:23:11.660Z,7.94
2019-04-05T20:25:42.964Z,7.87
2019-04-05T20:28:14.201Z,7.80
2019-04-05T20:30:45.520Z,7.83
2019-04-05T20:33:16.813Z,7.79
2019-04-05T20:35:48.164Z,7.81
2019-04-05T20:38:19.401Z,7.80
2019-04-05T20:40:50.730Z,7.75
2019-04-05T20:43:25.131Z,7.82
2019-04-05T20:45:59.308Z,7.83
2019-04-05T20:48:30.498Z,7.79
2019-04-05T20:51:05.112Z,7.81
2019-04-05T20:53:36.429Z,7.84
2019-04-05T20:56:07.760Z,7.81
2019-04-05T20:58:39.130Z,7.84
2019-04-05T21:01:10.440Z,7.80
2019-04-05T21:03:41.805Z,7.73
2019-04-05T21:06:13.298Z,7.71
2019-04-05T21:08:44.617Z,7.77
2019-04-05T21:11:15.867Z,7.71
2019-04-05T21:13:47.315Z,7.79
2019-04-05T21:16:18.671Z,7.77
2019-04-05T21:18:50.022Z,7.85
2019-04-05T21:21:21.481Z,7.80
2019-04-05T21:23:52.922Z,7.84
2019-04-05T21:26:24.384Z,7.73
2019-04-05T21:28:56.847Z,7.80
2019-04-05T21:31:28.227Z,7.87
2019-04-05T21:34:02.149Z,8.00
2019-04-05T21:36:57.166Z,8.02
2019-04-05T21:39:47.426Z,8.01
2019-04-05T21:42:18.765Z,8.09
2019-04-05T21:44:54.060Z,8.02
2019-04-05T21:47:25.417Z,7.97
2019-04-05T21:50:20.349Z,7.91
2019-04-05T21:52:51.615Z,7.89
2019-04-05T21:55:22.928Z,7.90
2019-04-05T21:57:54.253Z,8.03
2019-04-05T22:00:34.111Z,8.03
2019-04-05T22:03:05.600Z,8.05
2019-04-05T22:05:36.883Z,7.96
2019-04-05T22:08:11.016Z,7.93
2019-04-05T22:10:42.342Z,7.99
2019-04-05T22:13:25.533Z,7.88
2019-04-05T22:15:56.809Z,7.87
2019-04-05T22:18:28.236Z,7.96
2019-04-05T22:21:00.003Z,7.90
2019-04-05T22:23:31.302Z,7.90
2019-04-05T22:26:03.125Z,7.90
2019-04-05T22:28:34.403Z,7.88
2019-04-05T22:31:05.782Z,7.90
2019-04-05T22:33:37.472Z,7.86
2019-04-05T22:36:11.725Z,7.91
2019-04-05T22:38:42.944Z,7.94
2019-04-05T22:41:14.156Z,7.97
2019-04-05T22:43:45.489Z,7.95
2019-04-05T22:46:16.705Z,7.96
2019-04-05T22:48:47.990Z,7.87
2019-04-05T22:51:19.249Z,7.86
2019-04-05T22:53:50.538Z,7.92
2019-04-05T22:56:21.810Z,7.87
2019-04-05T22:58:53.144Z,7.85
2019-04-05T23:01:24.350Z,7.83
2019-04-05T23:03:55.582Z,7.83
2019-04-05T23:06:26.837Z,7.84
2019-04-05T23:08:58.199Z,7.84
2019-04-05T23:11:29.514Z,7.82
2019-04-05T23:14:00.860Z,7.73
2019-04-05T23:16:32.216Z,7.82
2019-04-05T23:19:03.504Z,7.80
2019-04-05T23:21:34.883Z,7.90
2019-04-05T23:24:06.221Z,7.90
2019-04-05T23:26:37.429Z,7.81
2019-04-05T23:29:08.686Z,7.89
2019-04-05T23:31:39.950Z,7.94
2019-04-05T23:34:11.165Z,7.83
2019-04-05T23:36:42.369Z,7.89
2019-04-05T23:39:13.662Z,7.84
2019-04-05T23:41:44.865Z,7.84
2019-04-05T23:44:16.094Z,7.83
2019-04-05T23:46:47.384Z,7.86
2019-04-05T23:49:18.687Z,7.79
2019-04-05T23:51:51.170Z,7.90
2019-04-05T23:54:22.499Z,7.89
2019-04-05T23:56:53.689Z,7.95
2019-04-05T23:59:24.993Z,7.96
